createdAt,value
2022-08-18T00:00:32.158Z,100.00
2022-08-18T00:03:27.173Z,100.00
2022-08-18T00:05:48.034Z,100.00
2022-08-18T00:08:15.060Z,100.00
2022-08-18T00:10:42.853Z,100.00
2022-08-18T00:13:09.799Z,100.00
2022-08-18T00:15:42.236Z,100.00
2022-08-18T00:26:10.798Z,100.00
2022-08-18T00:28:37.730Z,100.00
2022-08-18T00:31:05.495Z,100.00
2022-08-18T00:33:32.594Z,100.00
2022-08-18T00:35:59.720Z,100.00
2022-08-18T00:38:26.792Z,100.00
2022-08-18T00:40:55.347Z,100.00
2022-08-18T00:43:32.071Z,100.00
2022-08-18T00:45:59.389Z,100.00
2022-08-18T00:48:26.318Z,100.00
2022-08-18T00:50:55.516Z,100.00
2022-08-18T00:53:23.003Z,100.00
2022-08-18T00:55:54.454Z,100.00
2022-08-18T00:58:35.696Z,100.00
2022-08-18T01:01:04.610Z,100.00
2022-08-18T01:03:33.732Z,100.00
2022-08-18T01:06:04.593Z,100.00
2022-08-18T01:08:31.887Z,100.00
2022-08-18T01:11:02.347Z,100.00
2022-08-18T01:13:31.615Z,100.00
2022-08-18T01:15:58.948Z,100.00
2022-08-18T01:18:44.643Z,100.00
2022-08-18T01:21:32.417Z,100.00
2022-08-18T01:24:02.454Z,100.00
2022-08-18T01:26:30.355Z,100.00
2022-08-18T01:29:04.926Z,100.00
2022-08-18T01:31:37.849Z,100.00
2022-08-18T01:34:06.487Z,100.00
2022-08-18T01:36:37.515Z,100.00
2022-08-18T01:39:05.929Z,100.00
2022-08-18T01:41:33.092Z,100.00
2022-08-18T01:44:01.010Z,100.00
2022-08-18T01:46:29.839Z,100.00
2022-08-18T01:48:58.612Z,100.00
2022-08-18T01:51:38.043Z,100.00
2022-08-18T01:54:13.582Z,100.00
2022-08-18T01:56:42.459Z,100.00
2022-08-18T01:59:15.032Z,100.00
2022-08-18T02:01:50.613Z,100.00
2022-08-18T02:04:35.218Z,100.00
2022-08-18T02:07:04.596Z,100.00
2022-08-18T02:09:33.660Z,100.00
2022-08-18T02:12:01.570Z,100.00
2022-08-18T02:14:31.403Z,100.00
2022-08-18T02:17:02.544Z,100.00
2022-08-18T02:19:56.072Z,100.00
2022-08-18T02:22:23.052Z,100.00
2022-08-18T02:24:50.274Z,100.00
2022-08-18T02:27:17.387Z,100.00
2022-08-18T02:29:44.548Z,100.00
2022-08-18T02:32:11.588Z,100.00
2022-08-18T02:34:38.748Z,100.00
2022-08-18T02:37:05.770Z,100.00
2022-08-18T02:39:34.429Z,100.00
2022-08-18T02:42:01.405Z,100.00
2022-08-18T02:44:29.747Z,100.00
2022-08-18T02:46:56.797Z,100.00
2022-08-18T02:49:24.949Z,100.00
2022-08-18T02:51:52.850Z,100.00
2022-08-18T02:54:23.476Z,100.00
2022-08-18T02:56:51.745Z,100.00
2022-08-18T03:01:47.734Z,100.00
2022-08-18T03:04:17.694Z,100.00
2022-08-18T03:06:45.517Z,100.00
2022-08-18T03:09:13.647Z,100.00
2022-08-18T03:11:40.919Z,100.00
2022-08-18T03:14:11.500Z,100.00
2022-08-18T03:16:40.533Z,100.00
2022-08-18T03:19:20.755Z,100.00
2022-08-18T03:21:47.856Z,100.00
2022-08-18T03:24:19.676Z,100.00
2022-08-18T03:26:50.605Z,100.00
2022-08-18T03:29:17.712Z,100.00
2022-08-18T03:31:45.412Z,100.00
2022-08-18T03:34:13.035Z,100.00
2022-08-18T03:36:41.931Z,100.00
2022-08-18T03:39:10.664Z,100.00
2022-08-18T03:41:43.868Z,100.00
2022-08-18T03:44:28.118Z,100.00
2022-08-18T03:46:55.076Z,100.00
2022-08-18T03:49:22.404Z,100.00
2022-08-18T03:51:49.496Z,100.00
2022-08-18T03:54:18.527Z,100.00
2022-08-18T03:56:46.844Z,100.00
2022-08-18T03:59:18.659Z,100.00
2022-08-18T04:01:47.114Z,100.00
2022-08-18T04:04:16.218Z,100.00
2022-08-18T04:06:45.995Z,100.00
2022-08-18T04:09:14.526Z,100.00
2022-08-18T04:11:45.504Z,100.00
2022-08-18T04:14:13.807Z,100.00
2022-08-18T04:16:41.420Z,100.00
2022-08-18T04:19:08.918Z,100.00
2022-08-18T04:21:37.739Z,100.00
2022-08-18T04:24:05.311Z,100.00
2022-08-18T04:26:32.802Z,100.00
2022-08-18T04:29:03.044Z,100.00
2022-08-18T04:31:31.226Z,100.00
2022-08-18T04:33:59.024Z,100.00
2022-08-18T04:36:26.609Z,100.00
2022-08-18T04:38:54.256Z,100.00
2022-08-18T04:41:27.428Z,100.00
2022-08-18T04:43:55.687Z,100.00
2022-08-18T04:46:24.057Z,100.00
2022-08-18T04:48:52.328Z,100.00
2022-08-18T04:52:39.073Z,100.00
2022-08-18T04:54:07.771Z,100.00
2022-08-18T04:56:37.988Z,100.00
2022-08-18T04:59:09.357Z,100.00
2022-08-18T05:01:41.604Z,100.00
2022-08-18T05:04:09.352Z,100.00
2022-08-18T05:06:36.791Z,100.00
2022-08-18T05:09:05.112Z,100.00
2022-08-18T05:11:33.562Z,100.00
2022-08-18T05:14:01.869Z,100.00
2022-08-18T05:16:29.481Z,100.00
2022-08-18T05:18:57.282Z,100.00
2022-08-18T05:21:25.318Z,100.00
2022-08-18T05:23:52.887Z,100.00
2022-08-18T05:26:20.109Z,100.00
2022-08-18T05:28:47.576Z,100.00
2022-08-18T05:31:14.579Z,100.00
2022-08-18T05:33:41.900Z,100.00
2022-08-18T05:36:11.847Z,100.00
2022-08-18T05:38:44.748Z,100.00
2022-08-18T05:41:14.416Z,100.00
2022-08-18T05:43:51.715Z,100.00
2022-08-18T05:46:22.033Z,100.00
2022-08-18T05:48:49.898Z,100.00
2022-08-18T05:51:21.065Z,100.00
2022-08-18T05:54:06.978Z,100.00
2022-08-18T05:56:47.894Z,100.00
2022-08-18T05:59:17.647Z,100.00
2022-08-18T06:01:46.621Z,100.00
2022-08-18T06:04:25.998Z,100.00
2022-08-18T06:06:53.728Z,100.00
2022-08-18T06:09:23.557Z,100.00
2022-08-18T06:11:51.207Z,100.00
2022-08-18T06:14:19.054Z,100.00
2022-08-18T06:16:53.415Z,100.00
2022-08-18T06:19:20.419Z,100.00
2022-08-18T06:21:57.474Z,100.00
2022-08-18T06:24:30.377Z,100.00
2022-08-18T06:27:03.612Z,100.00
2022-08-18T06:29:36.423Z,100.00
2022-08-18T06:32:23.360Z,100.00
2022-08-18T06:34:54.527Z,100.00
2022-08-18T06:37:34.272Z,100.00
2022-08-18T06:40:02.270Z,100.00
2022-08-18T06:42:35.660Z,100.00
2022-08-18T06:45:12.741Z,100.00
2022-08-18T06:47:47.093Z,100.00
2022-08-18T06:50:23.097Z,100.00
2022-08-18T06:52:53.123Z,100.00
2022-08-18T06:55:31.892Z,100.00
2022-08-18T06:58:00.675Z,100.00
2022-08-18T07:00:32.742Z,100.00
2022-08-18T07:03:08.371Z,100.00
2022-08-18T07:05:36.976Z,100.00
2022-08-18T07:08:13.095Z,100.00
2022-08-18T07:10:41.910Z,100.00
2022-08-18T07:13:18.252Z,100.00
2022-08-18T07:15:48.230Z,100.00
2022-08-18T07:18:21.077Z,100.00
2022-08-18T07:20:49.759Z,100.00
2022-08-18T07:23:25.733Z,100.00
2022-08-18T07:25:59.586Z,100.00
2022-08-18T07:28:37.551Z,100.00
2022-08-18T07:31:17.732Z,100.00
2022-08-18T07:33:51.412Z,100.00
2022-08-18T07:36:21.607Z,100.00
2022-08-18T07:38:51.664Z,100.00
2022-08-18T07:41:26.864Z,100.00
2022-08-18T07:43:59.760Z,100.00
2022-08-18T07:46:35.777Z,100.00
2022-08-18T07:49:05.510Z,100.00
2022-08-18T07:51:45.846Z,100.00
2022-08-18T07:54:47.599Z,100.00
2022-08-18T07:57:19.864Z,100.00
2022-08-18T07:59:50.494Z,100.00
2022-08-18T08:02:26.665Z,100.00
2022-08-18T08:05:12.760Z,100.00
2022-08-18T08:07:50.800Z,100.00
2022-08-18T08:10:18.915Z,100.00
2022-08-18T08:13:01.727Z,100.00
2022-08-18T08:15:46.993Z,100.00
2022-08-18T08:18:34.017Z,100.00
2022-08-18T08:21:12.018Z,100.00
2022-08-18T08:23:52.494Z,100.00
2022-08-18T08:26:42.550Z,100.00
2022-08-18T08:29:28.406Z,100.00
2022-08-18T08:32:02.171Z,100.00
2022-08-18T08:34:55.780Z,100.00
2022-08-18T08:37:27.846Z,100.00
2022-08-18T08:40:00.728Z,100.00
2022-08-18T08:42:45.424Z,100.00
2022-08-18T08:45:18.039Z,100.00
2022-08-18T08:48:08.889Z,100.00
2022-08-18T08:51:00.003Z,100.00
2022-08-18T08:53:30.012Z,100.00
2022-08-18T08:56:02.449Z,100.00
2022-08-18T08:58:42.966Z,95.37
2022-08-18T09:01:12.547Z,91.97
2022-08-18T09:03:43.329Z,83.71
2022-08-18T09:06:25.351Z,76.40
2022-08-18T09:08:56.097Z,74.31
2022-08-18T09:11:45.364Z,71.26
2022-08-18T09:14:32.974Z,70.20
2022-08-18T09:17:18.507Z,72.43
2022-08-18T09:19:58.719Z,68.82
2022-08-18T09:22:26.238Z,66.10
2022-08-18T09:24:54.831Z,67.59
2022-08-18T09:28:08.793Z,68.36
2022-08-18T09:30:51.511Z,66.11
2022-08-18T09:33:26.569Z,65.76
2022-08-18T09:36:13.141Z,66.62
2022-08-18T09:39:27.429Z,67.34
2022-08-18T09:42:03.465Z,70.27
2022-08-18T09:44:45.820Z,68.96
2022-08-18T09:47:22.294Z,69.23
2022-08-18T09:49:55.471Z,70.14
2022-08-18T09:55:18.554Z,69.09
2022-08-18T09:57:46.713Z,70.93
2022-08-18T10:03:16.196Z,73.65
2022-08-18T10:05:59.573Z,76.50
2022-08-18T10:08:30.183Z,76.94
2022-08-18T10:11:09.384Z,77.18
2022-08-18T10:13:38.756Z,74.47
2022-08-18T10:16:22.155Z,76.42
2022-08-18T10:19:08.161Z,77.44
2022-08-18T10:21:53.961Z,77.61
2022-08-18T10:24:36.538Z,77.66
2022-08-18T10:27:06.724Z,79.60
2022-08-18T10:29:47.734Z,82.13
2022-08-18T10:32:14.804Z,83.71
2022-08-18T10:34:51.977Z,83.10
2022-08-18T10:37:28.791Z,84.28
2022-08-18T10:39:55.845Z,84.84
2022-08-18T10:42:32.687Z,86.19
2022-08-18T10:45:07.954Z,88.32
2022-08-18T10:47:36.988Z,90.18
2022-08-18T10:50:08.606Z,88.33
2022-08-18T10:52:51.016Z,90.10
2022-08-18T10:55:48.144Z,94.13
2022-08-18T10:58:24.024Z,92.77
2022-08-18T11:00:55.085Z,91.70
2022-08-18T11:06:28.306Z,97.46
2022-08-18T11:08:57.950Z,97.74
2022-08-18T11:11:37.077Z,99.58
2022-08-18T11:14:20.314Z,97.41
2022-08-18T11:16:59.704Z,100.00
2022-08-18T11:19:27.161Z,100.00
2022-08-18T11:21:54.764Z,100.00
2022-08-18T11:24:27.240Z,100.00
2022-08-18T11:26:55.673Z,100.00
2022-08-18T11:29:22.763Z,100.00
2022-08-18T11:31:53.631Z,100.00
2022-08-18T11:34:25.957Z,100.00
2022-08-18T11:37:00.223Z,100.00
2022-08-18T11:39:37.633Z,100.00
2022-08-18T11:42:08.353Z,100.00
2022-08-18T11:44:42.875Z,100.00
2022-08-18T11:47:23.526Z,100.00
2022-08-18T11:50:00.317Z,100.00
2022-08-18T11:52:32.949Z,100.00
2022-08-18T11:55:16.306Z,100.00
2022-08-18T11:57:58.536Z,100.00
2022-08-18T12:00:43.057Z,100.00
2022-08-18T12:03:17.343Z,100.00
2022-08-18T12:05:56.130Z,100.00
2022-08-18T12:11:27.512Z,100.00
2022-08-18T12:14:30.123Z,100.00
2022-08-18T12:16:50.855Z,100.00
2022-08-18T12:19:22.273Z,100.00
2022-08-18T12:21:54.640Z,100.00
2022-08-18T12:24:26.236Z,100.00
2022-08-18T12:26:56.537Z,100.00
2022-08-18T12:29:26.379Z,100.00
2022-08-18T12:31:58.078Z,100.00
2022-08-18T12:34:27.323Z,100.00
2022-08-18T12:36:55.894Z,100.00
2022-08-18T12:39:23.034Z,100.00
2022-08-18T12:41:51.428Z,100.00
2022-08-18T12:44:19.299Z,100.00
2022-08-18T12:46:47.608Z,100.00
2022-08-18T12:49:18.663Z,100.00
2022-08-18T12:51:46.601Z,100.00
2022-08-18T12:54:20.544Z,100.00
2022-08-18T12:56:51.876Z,100.00
2022-08-18T12:59:19.097Z,100.00
2022-08-18T13:01:46.587Z,100.00
2022-08-18T13:04:15.504Z,100.00
2022-08-18T13:07:00.304Z,100.00
2022-08-18T13:09:47.654Z,100.00
2022-08-18T13:12:18.455Z,100.00
2022-08-18T13:14:47.577Z,100.00
2022-08-18T13:17:32.780Z,100.00
2022-08-18T13:20:08.286Z,100.00
2022-08-18T13:22:35.998Z,100.00
2022-08-18T13:25:05.389Z,100.00
2022-08-18T13:27:45.621Z,100.00
2022-08-18T13:30:29.888Z,100.00
2022-08-18T13:33:02.754Z,100.00
2022-08-18T13:35:48.081Z,100.00
2022-08-18T13:38:27.252Z,100.00
2022-08-18T13:40:57.673Z,100.00
2022-08-18T13:43:29.532Z,100.00
2022-08-18T13:45:56.983Z,100.00
2022-08-18T13:48:25.695Z,100.00
2022-08-18T13:50:53.872Z,100.00
2022-08-18T13:53:23.816Z,100.00
2022-08-18T13:55:52.571Z,100.00
2022-08-18T13:58:20.850Z,100.00
2022-08-18T14:00:52.341Z,100.00
2022-08-18T14:03:42.276Z,100.00
2022-08-18T14:06:13.124Z,100.00
2022-08-18T14:08:40.754Z,100.00
2022-08-18T14:11:09.012Z,100.00
2022-08-18T14:13:38.188Z,100.00
2022-08-18T14:16:11.152Z,100.00
2022-08-18T14:19:09.806Z,100.00
2022-08-18T14:22:00.993Z,100.00
2022-08-18T14:24:49.102Z,100.00
2022-08-18T14:27:17.798Z,100.00
2022-08-18T14:29:47.925Z,100.00
2022-08-18T14:32:28.416Z,100.00
2022-08-18T14:35:00.125Z,100.00
2022-08-18T14:37:29.796Z,100.00
2022-08-18T14:39:57.185Z,100.00
2022-08-18T14:42:40.892Z,100.00
2022-08-18T14:45:17.554Z,100.00
2022-08-18T14:47:55.595Z,100.00
2022-08-18T14:50:25.729Z,100.00
2022-08-18T14:52:53.061Z,100.00
2022-08-18T14:55:20.816Z,100.00
2022-08-18T14:57:47.869Z,100.00
2022-08-18T15:00:16.878Z,100.00
2022-08-18T15:02:49.257Z,100.00
2022-08-18T15:05:19.756Z,100.00
2022-08-18T15:07:51.064Z,100.00
2022-08-18T15:10:19.741Z,100.00
2022-08-18T15:12:50.126Z,100.00
2022-08-18T15:15:18.248Z,100.00
2022-08-18T15:17:50.035Z,100.00
2022-08-18T15:20:17.932Z,100.00
2022-08-18T15:23:04.285Z,100.00
2022-08-18T15:25:44.991Z,100.00
2022-08-18T15:28:16.358Z,100.00
2022-08-18T15:30:45.018Z,100.00
2022-08-18T15:33:16.581Z,100.00
2022-08-18T15:35:44.470Z,100.00
2022-08-18T15:38:15.513Z,100.00
2022-08-18T15:40:52.214Z,100.00
2022-08-18T15:43:25.371Z,100.00
2022-08-18T15:45:58.242Z,100.00
2022-08-18T15:48:26.089Z,100.00
2022-08-18T15:50:53.574Z,100.00
2022-08-18T15:53:29.692Z,100.00
2022-08-18T15:56:04.360Z,100.00
2022-08-18T15:58:31.806Z,100.00
2022-08-18T16:00:59.348Z,100.00
2022-08-18T16:03:27.626Z,100.00
2022-08-18T16:05:56.309Z,100.00
2022-08-18T16:08:24.850Z,100.00
2022-08-18T16:10:52.770Z,100.00
2022-08-18T16:13:20.030Z,100.00
2022-08-18T16:15:48.464Z,100.00
2022-08-18T16:18:16.649Z,100.00
2022-08-18T16:20:43.893Z,100.00
2022-08-18T16:23:12.509Z,100.00
2022-08-18T16:25:40.604Z,100.00
2022-08-18T16:28:07.756Z,100.00
2022-08-18T16:30:35.767Z,100.00
2022-08-18T16:33:04.632Z,100.00
2022-08-18T16:35:32.258Z,100.00
2022-08-18T16:38:06.471Z,100.00
2022-08-18T16:40:33.539Z,100.00
2022-08-18T16:43:01.350Z,100.00
2022-08-18T16:45:28.867Z,100.00
2022-08-18T16:47:56.020Z,100.00
2022-08-18T16:50:24.909Z,100.00
2022-08-18T16:52:52.189Z,100.00
2022-08-18T16:55:19.816Z,100.00
2022-08-18T16:58:05.305Z,100.00
2022-08-18T17:00:54.812Z,100.00
2022-08-18T17:03:43.850Z,100.00
2022-08-18T17:06:12.827Z,100.00
2022-08-18T17:08:40.654Z,100.00
2022-08-18T17:11:09.489Z,100.00
2022-08-18T17:13:37.319Z,100.00
2022-08-18T17:16:04.532Z,100.00
2022-08-18T17:18:31.781Z,100.00
2022-08-18T17:21:03.688Z,100.00
2022-08-18T17:23:31.248Z,100.00
2022-08-18T17:25:58.985Z,100.00
2022-08-18T17:28:42.756Z,100.00
2022-08-18T17:31:19.468Z,100.00
2022-08-18T17:33:46.759Z,100.00
2022-08-18T17:36:20.975Z,100.00
2022-08-18T17:38:54.112Z,100.00
2022-08-18T17:41:21.270Z,100.00
2022-08-18T17:43:48.230Z,100.00
2022-08-18T17:46:27.099Z,100.00
2022-08-18T17:49:00.569Z,100.00
2022-08-18T17:51:33.686Z,100.00
2022-08-18T17:54:03.327Z,100.00
2022-08-18T17:56:36.278Z,100.00
2022-08-18T17:59:51.530Z,100.00
2022-08-18T18:02:18.379Z,100.00
2022-08-18T18:04:58.317Z,100.00
2022-08-18T18:07:28.092Z,100.00
2022-08-18T18:10:04.275Z,100.00
2022-08-18T18:12:32.669Z,100.00
2022-08-18T18:15:00.513Z,100.00
2022-08-18T18:17:32.526Z,100.00
2022-08-18T18:20:15.736Z,100.00
2022-08-18T18:22:43.908Z,100.00
2022-08-18T18:25:12.415Z,100.00
2022-08-18T18:27:41.880Z,100.00
2022-08-18T18:30:08.899Z,100.00
2022-08-18T18:32:59.069Z,100.00
2022-08-18T18:35:53.187Z,100.00
2022-08-18T18:38:36.355Z,100.00
2022-08-18T18:41:26.631Z,100.00
2022-08-18T18:44:04.591Z,100.00
2022-08-18T18:46:35.912Z,100.00
2022-08-18T18:49:08.083Z,100.00
2022-08-18T18:51:41.475Z,100.00
2022-08-18T18:54:26.814Z,100.00
2022-08-18T18:56:56.732Z,100.00
2022-08-18T18:59:42.645Z,100.00
2022-08-18T19:02:33.769Z,100.00
2022-08-18T19:05:25.608Z,100.00
2022-08-18T19:07:52.839Z,100.00
2022-08-18T19:10:26.132Z,100.00
2022-08-18T19:12:56.798Z,100.00
2022-08-18T19:15:25.631Z,100.00
2022-08-18T19:17:56.299Z,100.00
2022-08-18T19:20:28.749Z,100.00
2022-08-18T19:23:11.446Z,100.00
2022-08-18T19:26:00.242Z,100.00
2022-08-18T19:28:28.800Z,100.00
2022-08-18T19:30:57.557Z,100.00
2022-08-18T19:33:26.402Z,100.00
2022-08-18T19:36:19.619Z,100.00
2022-08-18T19:38:50.127Z,100.00
2022-08-18T19:41:40.741Z,100.00
2022-08-18T19:44:26.601Z,100.00
2022-08-18T19:46:54.458Z,100.00
2022-08-18T19:49:31.520Z,100.00
2022-08-18T19:52:01.503Z,100.00
2022-08-18T19:54:42.905Z,100.00
2022-08-18T19:57:16.294Z,100.00
2022-08-18T20:00:08.651Z,100.00
2022-08-18T20:03:03.959Z,100.00
2022-08-18T20:05:31.678Z,100.00
2022-08-18T20:08:20.988Z,100.00
2022-08-18T20:11:07.225Z,100.00
2022-08-18T20:13:43.054Z,100.00
2022-08-18T20:16:13.549Z,100.00
2022-08-18T20:18:43.216Z,100.00
2022-08-18T20:21:16.608Z,100.00
2022-08-18T20:23:55.671Z,100.00
2022-08-18T20:26:41.332Z,100.00
2022-08-18T20:29:19.088Z,100.00
2022-08-18T20:31:49.345Z,100.00
2022-08-18T20:34:18.370Z,100.00
2022-08-18T20:36:46.924Z,100.00
2022-08-18T20:39:29.929Z,100.00
2022-08-18T20:41:57.091Z,100.00
2022-08-18T20:44:29.359Z,100.00
2022-08-18T20:46:56.752Z,100.00
2022-08-18T20:49:33.399Z,100.00
2022-08-18T20:52:09.199Z,100.00
2022-08-18T20:54:57.473Z,100.00
2022-08-18T20:57:27.391Z,100.00
2022-08-18T20:59:58.577Z,100.00
2022-08-18T21:02:28.059Z,100.00
2022-08-18T21:04:57.717Z,100.00
2022-08-18T21:07:36.637Z,100.00
2022-08-18T21:10:12.808Z,100.00
2022-08-18T21:12:52.524Z,100.00
2022-08-18T21:15:21.159Z,100.00
2022-08-18T21:17:57.095Z,100.00
2022-08-18T21:20:24.677Z,100.00
2022-08-18T21:23:01.048Z,100.00
2022-08-18T21:25:28.326Z,100.00
2022-08-18T21:27:57.187Z,100.00
2022-08-18T21:30:26.576Z,100.00
2022-08-18T21:32:54.089Z,100.00
2022-08-18T21:35:27.180Z,100.00
2022-08-18T21:37:55.835Z,100.00
2022-08-18T21:40:30.899Z,100.00
2022-08-18T21:42:58.446Z,100.00
2022-08-18T21:45:25.591Z,100.00
2022-08-18T21:47:54.535Z,100.00
2022-08-18T21:50:23.371Z,100.00
2022-08-18T21:52:52.034Z,100.00
2022-08-18T21:55:26.164Z,100.00
2022-08-18T21:58:14.341Z,100.00
2022-08-18T22:00:42.996Z,100.00
2022-08-18T22:03:23.869Z,100.00
2022-08-18T22:06:13.054Z,100.00
2022-08-18T22:09:26.015Z,100.00
2022-08-18T22:12:30.744Z,100.00
2022-08-18T22:15:05.676Z,100.00
2022-08-18T22:17:35.070Z,100.00
2022-08-18T22:20:20.934Z,100.00
2022-08-18T22:23:06.708Z,100.00
2022-08-18T22:25:34.115Z,100.00
2022-08-18T22:28:01.089Z,100.00
2022-08-18T22:30:28.012Z,100.00
2022-08-18T22:32:54.915Z,100.00
2022-08-18T22:35:21.852Z,100.00
2022-08-18T22:37:50.832Z,100.00
2022-08-18T22:40:21.603Z,100.00
2022-08-18T22:42:49.526Z,100.00
2022-08-18T22:45:16.694Z,100.00
2022-08-18T22:47:45.145Z,100.00
2022-08-18T22:50:13.124Z,100.00
2022-08-18T22:52:41.301Z,100.00
2022-08-18T22:55:11.481Z,100.00
2022-08-18T22:57:39.761Z,100.00
2022-08-18T23:00:11.906Z,100.00
2022-08-18T23:02:38.874Z,100.00
2022-08-18T23:05:06.306Z,100.00
2022-08-18T23:07:34.183Z,100.00
2022-08-18T23:10:01.759Z,100.00
2022-08-18T23:12:28.763Z,100.00
2022-08-18T23:14:55.706Z,100.00
2022-08-18T23:17:22.914Z,100.00
2022-08-18T23:19:52.135Z,100.00
2022-08-18T23:22:19.643Z,100.00
2022-08-18T23:24:47.218Z,100.00
2022-08-18T23:27:14.708Z,100.00
2022-08-18T23:29:41.658Z,100.00
2022-08-18T23:32:08.692Z,100.00
2022-08-18T23:34:36.263Z,100.00
2022-08-18T23:37:04.578Z,100.00
2022-08-18T23:39:32.724Z,100.00
2022-08-18T23:42:00.312Z,100.00
2022-08-18T23:44:27.947Z,100.00
2022-08-18T23:46:56.291Z,100.00
2022-08-18T23:49:23.537Z,100.00
2022-08-18T23:51:51.402Z,100.00
2022-08-18T23:54:20.368Z,100.00
2022-08-18T23:56:47.892Z,100.00
2022-08-18T23:59:16.619Z,100.00
